Time;durP1;ratioP1;P1;durP2;ratioP2;P2;SDS_P1;SDS_P2;PMS_P1;PMS_P2;Temp;Humidity;BMP_temperature;BMP_pressure;BME280_temperature;BME280_humidity;BME280_pressure;Samples;Min_cycle;Max_cycle;Signal;HPM_P1;HPM_P2
2024/05/04 00:02:07;;;;;;;2.78;1.75;;;;;;;;;;5457292;26;20010;-87
2024/05/04 00:04:33;;;;;;;4.78;1.70;;;;;;;;;;5457267;26;20000;-88
2024/05/04 00:06:59;;;;;;;3.15;1.80;;;;;;;;;;5457050;26;19994;-88
2024/05/04 00:09:25;;;;;;;3.75;1.70;;;;;;;;;;5457961;26;19998;-88
2024/05/04 00:11:51;;;;;;;2.33;1.77;;;;;;;;;;5457330;26;20030;-89
2024/05/04 00:14:17;;;;;;;3.95;1.90;;;;;;;;;;5457164;26;19990;-88
2024/05/04 00:16:43;;;;;;;2.33;1.85;;;;;;;;;;5456897;26;19994;-88
2024/05/04 00:19:09;;;;;;;5.90;1.90;;;;;;;;;;5456923;26;20001;-89
2024/05/04 00:21:35;;;;;;;5.57;2.28;;;;;;;;;;5456649;26;20006;-88
2024/05/04 00:24:01;;;;;;;3.47;2.10;;;;;;;;;;5457027;26;19990;-88
2024/05/04 00:26:27;;;;;;;2.08;1.80;;;;;;;;;;5457127;26;20446;-89
2024/05/04 00:28:53;;;;;;;2.35;2.13;;;;;;;;;;5457267;26;19994;-88
2024/05/04 00:31:19;;;;;;;3.17;2.00;;;;;;;;;;5456254;26;19998;-88
2024/05/04 00:33:45;;;;;;;2.13;1.88;;;;;;;;;;5456740;26;20018;-89
2024/05/04 00:36:12;;;;;;;5.28;2.17;;;;;;;;;;5456552;26;19990;-89
2024/05/04 00:38:38;;;;;;;2.63;2.13;;;;;;;;;;5455759;26;20002;-88
2024/05/04 00:41:04;;;;;;;2.15;1.98;;;;;;;;;;5456874;26;20066;-88
2024/05/04 00:43:30;;;;;;;3.60;1.98;;;;;;;;;;5456896;26;20453;-89
2024/05/04 00:45:56;;;;;;;3.45;2.05;;;;;;;;;;5457926;26;20429;-89
2024/05/04 00:48:22;;;;;;;2.97;1.95;;;;;;;;;;5457752;26;20308;-89
2024/05/04 00:50:49;;;;;;;2.55;2.05;;;;;;;;;;5456859;26;20431;-89
2024/05/04 00:53:16;;;;;;;2.85;2.00;;;;;;;;;;5456791;26;20038;-89
2024/05/04 00:55:42;;;;;;;6.55;1.95;;;;;;;;;;5456979;26;19998;-88
2024/05/04 00:58:09;;;;;;;4.60;2.30;;;;;;;;;;5457011;26;19994;-90
2024/05/04 01:00:35;;;;;;;3.85;2.10;;;;;;;;;;5456166;26;20473;-89
2024/05/04 01:03:02;;;;;;;2.33;1.90;;;;;;;;;;5456392;26;20005;-89
2024/05/04 01:05:28;;;;;;;3.03;2.20;;;;;;;;;;5457221;26;20459;-87
2024/05/04 01:07:54;;;;;;;2.90;2.00;;;;;;;;;;5457596;26;19994;-89
2024/05/04 01:10:20;;;;;;;3.15;2.15;;;;;;;;;;5456632;26;20091;-89
2024/05/04 01:12:46;;;;;;;5.53;2.30;;;;;;;;;;5456468;26;20006;-89
2024/05/04 01:15:12;;;;;;;2.58;2.00;;;;;;;;;;5456796;26;20002;-88
2024/05/04 01:17:38;;;;;;;3.63;1.95;;;;;;;;;;5456556;26;19998;-88
2024/05/04 01:20:04;;;;;;;5.55;2.20;;;;;;;;;;5456600;26;20070;-88
2024/05/04 01:22:33;;;;;;;4.55;2.15;;;;;;;;;;5455875;26;20078;-88
2024/05/04 01:24:59;;;;;;;3.58;1.98;;;;;;;;;;5456351;26;20038;-89
2024/05/04 01:27:25;;;;;;;4.13;2.17;;;;;;;;;;5456958;26;20010;-90
2024/05/04 01:29:51;;;;;;;5.68;2.35;;;;;;;;;;5456286;26;20326;-88
2024/05/04 01:32:17;;;;;;;4.43;2.08;;;;;;;;;;5455669;26;20029;-89
2024/05/04 01:34:43;;;;;;;2.88;1.95;;;;;;;;;;5455940;26;20013;-88
2024/05/04 01:37:09;;;;;;;2.20;2.00;;;;;;;;;;5456330;26;20376;-88
2024/05/04 01:39:35;;;;;;;2.92;2.10;;;;;;;;;;5456028;26;19998;-89
2024/05/04 01:42:01;;;;;;;4.50;2.85;;;;;;;;;;5455445;26;20071;-89
2024/05/04 01:44:27;;;;;;;2.47;2.10;;;;;;;;;;5456720;26;20034;-88
2024/05/04 01:46:53;;;;;;;4.63;2.50;;;;;;;;;;5455799;26;19994;-88
2024/05/04 01:49:19;;;;;;;3.00;2.30;;;;;;;;;;5455779;26;20005;-88
2024/05/04 01:51:45;;;;;;;5.13;2.30;;;;;;;;;;5455304;26;20070;-89
2024/05/04 01:54:11;;;;;;;7.07;2.30;;;;;;;;;;5455873;26;19998;-89
2024/05/04 01:56:37;;;;;;;6.95;2.60;;;;;;;;;;5455958;26;19994;-88
2024/05/04 01:59:03;;;;;;;3.92;2.30;;;;;;;;;;5455647;26;19998;-89
2024/05/04 02:01:29;;;;;;;2.78;2.13;;;;;;;;;;5456541;26;20330;-89
2024/05/04 02:03:55;;;;;;;4.95;2.83;;;;;;;;;;5455637;26;19998;-89
2024/05/04 02:06:21;;;;;;;4.47;2.40;;;;;;;;;;5455539;26;20199;-88
2024/05/04 02:08:47;;;;;;;3.42;2.38;;;;;;;;;;5455873;26;20006;-88
2024/05/04 02:11:13;;;;;;;4.82;2.22;;;;;;;;;;5455562;26;20008;-89
2024/05/04 02:13:39;;;;;;;6.00;2.55;;;;;;;;;;5455665;26;20017;-89
2024/05/04 02:16:05;;;;;;;5.78;2.30;;;;;;;;;;5455501;26;20437;-88
2024/05/04 02:18:31;;;;;;;5.70;2.15;;;;;;;;;;5455891;26;19998;-88
2024/05/04 02:20:57;;;;;;;3.28;2.38;;;;;;;;;;5455703;26;19994;-88
2024/05/04 02:23:25;;;;;;;4.57;2.20;;;;;;;;;;5455390;26;20066;-89
2024/05/04 02:25:51;;;;;;;3.78;2.53;;;;;;;;;;5455939;26;19994;-88
2024/05/04 02:28:17;;;;;;;3.70;2.50;;;;;;;;;;5454972;26;20012;-88
2024/05/04 02:30:43;;;;;;;2.75;2.10;;;;;;;;;;5455063;26;20000;-87
2024/05/04 02:33:13;;;;;;;3.90;2.30;;;;;;;;;;5455280;26;20070;-90
2024/05/04 02:35:39;;;;;;;4.30;2.78;;;;;;;;;;5454708;26;20018;-88
2024/05/04 02:38:05;;;;;;;5.95;2.70;;;;;;;;;;5453909;26;20013;-88
2024/05/04 02:40:30;;;;;;;4.32;2.30;;;;;;;;;;5455368;26;19998;-88
2024/05/04 02:42:57;;;;;;;3.78;2.40;;;;;;;;;;5454197;26;20044;-87
2024/05/04 02:45:22;;;;;;;4.22;2.45;;;;;;;;;;5454588;26;20055;-87
2024/05/04 02:47:48;;;;;;;4.22;2.25;;;;;;;;;;5454211;26;20005;-89
2024/05/04 02:50:14;;;;;;;5.30;2.67;;;;;;;;;;5454701;26;20427;-88
2024/05/04 02:52:40;;;;;;;3.30;2.20;;;;;;;;;;5486754;26;19998;-88
2024/05/04 02:55:06;;;;;;;4.30;2.40;;;;;;;;;;5454522;26;19993;-89
2024/05/04 02:57:33;;;;;;;3.58;2.40;;;;;;;;;;5455364;26;20008;-87
2024/05/04 02:59:59;;;;;;;4.93;2.60;;;;;;;;;;5453416;26;19994;-89
2024/05/04 03:02:25;;;;;;;3.47;2.40;;;;;;;;;;5487104;26;20006;-90
2024/05/04 03:04:51;;;;;;;4.40;2.58;;;;;;;;;;5455050;26;20070;-89
2024/05/04 03:07:17;;;;;;;3.42;2.40;;;;;;;;;;5454510;26;20330;-88
2024/05/04 03:09:44;;;;;;;5.18;2.28;;;;;;;;;;5454109;26;19998;-88
2024/05/04 03:12:10;;;;;;;3.65;2.60;;;;;;;;;;5454525;26;20452;-87
2024/05/04 03:14:37;;;;;;;3.85;2.22;;;;;;;;;;5454213;26;19998;-88
2024/05/04 03:17:03;;;;;;;4.25;2.50;;;;;;;;;;5454680;26;20442;-88
2024/05/04 03:19:29;;;;;;;6.50;2.50;;;;;;;;;;5454316;26;20158;-88
2024/05/04 03:21:55;;;;;;;9.35;2.35;;;;;;;;;;5454599;26;20256;-87
2024/05/04 03:24:25;;;;;;;3.38;2.28;;;;;;;;;;5452633;26;20000;-90
2024/05/04 03:26:51;;;;;;;4.90;2.20;;;;;;;;;;5438431;26;19998;-88
2024/05/04 03:29:17;;;;;;;7.53;2.60;;;;;;;;;;5466991;26;19994;-88
2024/05/04 03:31:43;;;;;;;4.30;1.90;;;;;;;;;;5454342;26;20005;-89
2024/05/04 03:34:10;;;;;;;4.97;2.35;;;;;;;;;;5453756;26;20034;-90
2024/05/04 03:36:40;;;;;;;4.57;2.40;;;;;;;;;;5454948;26;20001;-88
2024/05/04 03:39:06;;;;;;;5.40;2.40;;;;;;;;;;5454739;26;19990;-88
2024/05/04 03:41:32;;;;;;;2.67;2.10;;;;;;;;;;5425080;26;20010;-88
2024/05/04 03:44:01;;;;;;;4.35;2.30;;;;;;;;;;5418014;26;20006;-89
2024/05/04 03:46:27;;;;;;;4.35;2.17;;;;;;;;;;5418254;26;20009;-89
2024/05/04 03:48:53;;;;;;;3.80;2.40;;;;;;;;;;5417770;26;19994;-88
2024/05/04 03:51:19;;;;;;;4.13;1.95;;;;;;;;;;5427314;26;20003;-90
2024/05/04 03:53:45;;;;;;;3.25;2.00;;;;;;;;;;5470992;26;19994;-88
2024/05/04 03:56:11;;;;;;;5.95;2.58;;;;;;;;;;5485108;26;20005;-89
2024/05/04 03:58:37;;;;;;;4.57;2.00;;;;;;;;;;5452481;26;19998;-88
2024/05/04 04:01:03;;;;;;;4.80;2.20;;;;;;;;;;5454275;26;20507;-88
2024/05/04 04:03:29;;;;;;;4.38;2.45;;;;;;;;;;5476032;26;19994;-89
2024/05/04 04:05:55;;;;;;;2.55;2.25;;;;;;;;;;5484057;26;20012;-88
2024/05/04 04:08:21;;;;;;;4.05;2.25;;;;;;;;;;5484583;26;20017;-88
2024/05/04 04:10:47;;;;;;;5.70;2.30;;;;;;;;;;5483959;26;20066;-90
2024/05/04 04:13:13;;;;;;;3.95;2.30;;;;;;;;;;5462340;26;20005;-89
2024/05/04 04:15:39;;;;;;;5.00;2.33;;;;;;;;;;5455722;26;19999;-88
2024/05/04 04:18:06;;;;;;;3.70;2.33;;;;;;;;;;5474557;26;20012;-89
2024/05/04 04:20:31;;;;;;;6.22;2.50;;;;;;;;;;5488075;26;20427;-90
2024/05/04 04:22:58;;;;;;;4.35;2.25;;;;;;;;;;5486126;26;20002;-89
2024/05/04 04:25:23;;;;;;;3.42;2.20;;;;;;;;;;5487609;26;20005;-88
2024/05/04 04:27:49;;;;;;;5.13;2.63;;;;;;;;;;5478755;26;19998;-89
2024/05/04 04:30:15;;;;;;;6.70;2.40;;;;;;;;;;5456823;26;19990;-89
2024/05/04 04:32:41;;;;;;;3.05;2.45;;;;;;;;;;5454106;26;20010;-89
2024/05/04 04:35:08;;;;;;;4.47;2.63;;;;;;;;;;5457931;26;20005;-89
2024/05/04 04:37:33;;;;;;;3.67;2.30;;;;;;;;;;5475675;26;20010;-90
2024/05/04 04:39:59;;;;;;;3.67;2.60;;;;;;;;;;5420735;26;20392;-89
2024/05/04 04:42:25;;;;;;;3.67;2.40;;;;;;;;;;5420843;26;19998;-89
2024/05/04 04:44:51;;;;;;;4.60;2.30;;;;;;;;;;5420777;26;20005;-91
2024/05/04 04:47:17;;;;;;;6.85;2.67;;;;;;;;;;5420784;26;19999;-89
2024/05/04 04:49:43;;;;;;;4.20;2.40;;;;;;;;;;5420566;26;20023;-88
2024/05/04 04:52:10;;;;;;;4.07;2.35;;;;;;;;;;5453975;26;20002;-89
2024/05/04 04:54:36;;;;;;;4.75;2.60;;;;;;;;;;5479970;26;20009;-89
2024/05/04 04:57:02;;;;;;;3.45;2.40;;;;;;;;;;5429544;26;19998;-88
2024/05/04 04:59:28;;;;;;;4.00;2.30;;;;;;;;;;5455287;26;20482;-88
2024/05/04 05:01:54;;;;;;;4.10;2.30;;;;;;;;;;5487097;26;20009;-89
2024/05/04 05:04:20;;;;;;;3.97;2.47;;;;;;;;;;5484334;26;19994;-87
2024/05/04 05:06:47;;;;;;;3.38;2.30;;;;;;;;;;5486886;26;19994;-88
2024/05/04 05:09:12;;;;;;;3.50;2.30;;;;;;;;;;5486925;26;20006;-89
2024/05/04 05:11:38;;;;;;;5.53;2.30;;;;;;;;;;5458873;26;20013;-89
2024/05/04 05:14:04;;;;;;;3.42;2.60;;;;;;;;;;5456528;26;19986;-88
2024/05/04 05:16:30;;;;;;;2.70;2.30;;;;;;;;;;5468528;26;20002;-88
2024/05/04 05:18:56;;;;;;;7.95;2.75;;;;;;;;;;5463233;26;19994;-88
2024/05/04 05:21:22;;;;;;;4.95;2.55;;;;;;;;;;5459194;26;20001;-88
2024/05/04 05:23:48;;;;;;;5.20;2.40;;;;;;;;;;5454761;26;20110;-87
2024/05/04 05:26:14;;;;;;;6.55;2.50;;;;;;;;;;5471676;26;19990;-89
2024/05/04 05:28:40;;;;;;;7.90;2.50;;;;;;;;;;5438746;26;20040;-88
2024/05/04 05:31:06;;;;;;;4.10;2.47;;;;;;;;;;5473692;26;20451;-87
2024/05/04 05:33:32;;;;;;;5.03;2.40;;;;;;;;;;5467031;26;20193;-89
2024/05/04 05:35:58;;;;;;;6.05;2.65;;;;;;;;;;5486252;26;19994;-88
2024/05/04 05:38:24;;;;;;;5.20;2.80;;;;;;;;;;5482103;26;20403;-89
2024/05/04 05:40:50;;;;;;;4.78;2.67;;;;;;;;;;5485882;26;20062;-89
2024/05/04 05:43:16;;;;;;;5.60;2.70;;;;;;;;;;5482028;26;20002;-89
2024/05/04 05:45:42;;;;;;;8.95;2.95;;;;;;;;;;5456823;26;19994;-89
2024/05/04 05:48:09;;;;;;;4.38;2.60;;;;;;;;;;5454826;26;20307;-88
2024/05/04 05:50:35;;;;;;;4.35;2.70;;;;;;;;;;5454243;26;20499;-89
2024/05/04 05:53:04;;;;;;;7.75;3.30;;;;;;;;;;5419518;26;20068;-88
2024/05/04 05:55:30;;;;;;;4.85;2.70;;;;;;;;;;5443572;26;20013;-87
2024/05/04 05:57:56;;;;;;;3.90;2.80;;;;;;;;;;5482637;26;20070;-88
2024/05/04 06:00:22;;;;;;;4.90;2.70;;;;;;;;;;5461330;26;20001;-88
2024/05/04 06:02:48;;;;;;;5.00;2.47;;;;;;;;;;5487236;26;20069;-87
2024/05/04 06:05:15;;;;;;;3.88;2.58;;;;;;;;;;5428248;26;20003;-89
2024/05/04 06:07:41;;;;;;;7.30;2.72;;;;;;;;;;5419858;26;20023;-88
2024/05/04 06:10:07;;;;;;;4.47;2.53;;;;;;;;;;5446974;26;20012;-87
2024/05/04 06:12:33;;;;;;;5.70;2.60;;;;;;;;;;5454918;26;20006;-88
2024/05/04 06:14:59;;;;;;;5.57;2.85;;;;;;;;;;5455698;26;20070;-88
2024/05/04 06:17:29;;;;;;;8.25;2.70;;;;;;;;;;5454734;26;19998;-88
2024/05/04 06:19:55;;;;;;;4.25;2.55;;;;;;;;;;5466891;26;20016;-87
2024/05/04 06:22:21;;;;;;;8.50;3.00;;;;;;;;;;5485860;26;19998;-89
2024/05/04 06:24:47;;;;;;;7.38;2.80;;;;;;;;;;5472615;26;20357;-90
2024/05/04 06:27:13;;;;;;;6.65;2.78;;;;;;;;;;5485791;26;20001;-89
2024/05/04 06:29:42;;;;;;;6.93;2.67;;;;;;;;;;5485048;26;20010;-88
2024/05/04 06:32:08;;;;;;;5.80;3.05;;;;;;;;;;5485547;26;20449;-88
2024/05/04 06:34:35;;;;;;;5.18;2.47;;;;;;;;;;5483066;26;20016;-89
2024/05/04 06:37:01;;;;;;;3.60;2.42;;;;;;;;;;5484999;26;20322;-88
2024/05/04 06:39:27;;;;;;;5.05;2.67;;;;;;;;;;5484610;26;20017;-89
2024/05/04 06:41:54;;;;;;;4.88;2.50;;;;;;;;;;5485581;26;20009;-89
2024/05/04 06:44:20;;;;;;;6.65;2.80;;;;;;;;;;5478294;26;19997;-89
2024/05/04 06:46:46;;;;;;;4.30;2.45;;;;;;;;;;5462605;26;19994;-91
2024/05/04 06:49:12;;;;;;;4.97;2.53;;;;;;;;;;5453997;26;19998;-88
2024/05/04 06:51:38;;;;;;;4.85;2.53;;;;;;;;;;5484408;26;20026;-89
2024/05/04 06:54:04;;;;;;;6.28;2.50;;;;;;;;;;5482979;26;20005;-90
2024/05/04 06:56:30;;;;;;;6.28;2.70;;;;;;;;;;5463816;26;20013;-90
2024/05/04 06:58:56;;;;;;;3.42;2.33;;;;;;;;;;5455291;26;19990;-90
2024/05/04 07:01:22;;;;;;;6.05;2.22;;;;;;;;;;5433448;26;20014;-90
2024/05/04 07:03:48;;;;;;;4.10;2.10;;;;;;;;;;5419272;26;19998;-89
2024/05/04 07:06:14;;;;;;;6.88;2.40;;;;;;;;;;5425533;26;20455;-90
2024/05/04 07:08:40;;;;;;;2.70;2.50;;;;;;;;;;5445547;26;19990;-89
2024/05/04 07:11:06;;;;;;;11.48;2.63;;;;;;;;;;5452685;26;19995;-88
2024/05/04 07:13:32;;;;;;;5.53;2.05;;;;;;;;;;5453955;26;20066;-89
2024/05/04 07:15:59;;;;;;;4.22;2.00;;;;;;;;;;5455495;26;20042;-91
2024/05/04 07:18:26;;;;;;;4.90;2.05;;;;;;;;;;5471213;26;20082;-89
2024/05/04 07:20:52;;;;;;;6.18;2.10;;;;;;;;;;5454097;26;20016;-88
2024/05/04 07:23:18;;;;;;;3.92;1.90;;;;;;;;;;5453410;26;20443;-89
2024/05/04 07:25:44;;;;;;;3.63;2.00;;;;;;;;;;5477134;26;20446;-89
2024/05/04 07:28:11;;;;;;;5.35;1.70;;;;;;;;;;5451392;26;20013;-88
2024/05/04 07:30:37;;;;;;;3.58;1.80;;;;;;;;;;5460460;26;19998;-89
2024/05/04 07:33:03;;;;;;;4.70;1.88;;;;;;;;;;5484729;26;20004;-89
2024/05/04 07:35:29;;;;;;;4.78;1.95;;;;;;;;;;5463697;26;20002;-88
2024/05/04 07:37:55;;;;;;;5.43;2.10;;;;;;;;;;5462121;26;20457;-89
2024/05/04 07:40:21;;;;;;;3.55;1.60;;;;;;;;;;5474659;26;19998;-89
2024/05/04 07:42:47;;;;;;;8.02;1.90;;;;;;;;;;5485385;26;20466;-89
2024/05/04 07:45:13;;;;;;;3.05;1.60;;;;;;;;;;5481221;26;20526;-89
2024/05/04 07:47:39;;;;;;;5.55;1.30;;;;;;;;;;5484461;26;20229;-88
2024/05/04 07:50:06;;;;;;;3.97;1.73;;;;;;;;;;5467381;26;19997;-89
2024/05/04 07:52:34;;;;;;;3.63;1.70;;;;;;;;;;5486304;26;20470;-89
2024/05/04 07:55:00;;;;;;;2.33;1.50;;;;;;;;;;5453500;26;19998;-88
2024/05/04 07:57:26;;;;;;;1.63;1.35;;;;;;;;;;5466937;26;20009;-88
2024/05/04 07:59:51;;;;;;;1.92;1.30;;;;;;;;;;5484936;26;20427;-88
2024/05/04 08:02:18;;;;;;;4.63;1.45;;;;;;;;;;5488034;26;20021;-89
2024/05/04 08:04:44;;;;;;;1.98;1.30;;;;;;;;;;5485790;26;19998;-89
2024/05/04 08:07:10;;;;;;;5.15;1.40;;;;;;;;;;5484441;26;20195;-88
2024/05/04 08:09:36;;;;;;;2.38;1.27;;;;;;;;;;5475716;26;19994;-89
2024/05/04 08:12:02;;;;;;;2.35;1.40;;;;;;;;;;5478911;26;20001;-89
2024/05/04 08:14:28;;;;;;;3.42;1.48;;;;;;;;;;5489296;26;19990;-89
2024/05/04 08:16:54;;;;;;;2.20;1.33;;;;;;;;;;5471842;26;20020;-88
2024/05/04 08:19:22;;;;;;;2.35;1.30;;;;;;;;;;5489482;26;19994;-89
2024/05/04 08:21:48;;;;;;;2.53;1.23;;;;;;;;;;5457166;26;20002;-88
2024/05/04 08:24:15;;;;;;;2.30;1.10;;;;;;;;;;5457147;26;19990;-89
2024/05/04 08:26:41;;;;;;;1.20;1.02;;;;;;;;;;5473509;26;20067;-90
2024/05/04 08:29:07;;;;;;;2.70;1.20;;;;;;;;;;5484700;26;19998;-89
2024/05/04 08:31:33;;;;;;;1.33;1.05;;;;;;;;;;5482554;26;20017;-89
2024/05/04 08:33:59;;;;;;;3.22;1.08;;;;;;;;;;5487821;26;20005;-89
2024/05/04 08:36:25;;;;;;;4.13;1.25;;;;;;;;;;5487410;26;20006;-89
2024/05/04 08:38:51;;;;;;;1.83;1.23;;;;;;;;;;5466150;26;20002;-89
2024/05/04 08:41:17;;;;;;;2.08;1.00;;;;;;;;;;5485845;26;20329;-89
2024/05/04 08:43:46;;;;;;;3.67;1.20;;;;;;;;;;5485050;26;20260;-89
2024/05/04 08:46:12;;;;;;;2.28;1.23;;;;;;;;;;5459386;26;20418;-88
2024/05/04 08:48:38;;;;;;;2.92;1.10;;;;;;;;;;5420444;26;20443;-88
2024/05/04 08:51:09;;;;;;;1.10;1.00;;;;;;;;;;5475731;26;19994;-88
2024/05/04 08:53:35;;;;;;;4.57;1.20;;;;;;;;;;5465923;26;20021;-88
2024/05/04 08:56:10;;;;;;;1.63;1.20;;;;;;;;;;5481688;26;20062;-89
2024/05/04 08:58:37;;;;;;;3.70;1.48;;;;;;;;;;5473655;26;20002;-88
2024/05/04 09:01:04;;;;;;;2.50;1.20;;;;;;;;;;5475816;26;20009;-88
2024/05/04 09:03:30;;;;;;;1.60;1.20;;;;;;;;;;5501774;25;19998;-88
2024/05/04 09:05:57;;;;;;;3.45;1.30;;;;;;;;;;5514665;26;20006;-88
2024/05/04 09:08:23;;;;;;;3.47;1.42;;;;;;;;;;5501180;26;20450;-87
2024/05/04 09:10:49;;;;;;;2.35;1.20;;;;;;;;;;5456287;26;20109;-89
2024/05/04 09:13:15;;;;;;;2.72;1.10;;;;;;;;;;5456204;26;20331;-88
2024/05/04 09:15:40;;;;;;;1.38;1.10;;;;;;;;;;5456427;26;20005;-88
2024/05/04 09:18:06;;;;;;;3.35;1.20;;;;;;;;;;5455427;26;20525;-88
2024/05/04 09:20:32;;;;;;;2.22;1.20;;;;;;;;;;5455638;26;19998;-89
2024/05/04 09:22:58;;;;;;;2.50;1.17;;;;;;;;;;5455232;26;20074;-88
2024/05/04 09:25:25;;;;;;;2.80;1.80;;;;;;;;;;5455610;26;20020;-89
2024/05/04 09:27:51;;;;;;;1.30;1.05;;;;;;;;;;5456980;26;20005;-88
2024/05/04 09:30:17;;;;;;;1.65;1.08;;;;;;;;;;5455798;26;20010;-89
2024/05/04 09:32:46;;;;;;;2.40;1.15;;;;;;;;;;5456059;26;20001;-89
2024/05/04 09:35:15;;;;;;;1.00;1.00;;;;;;;;;;5455583;26;20047;-89
2024/05/04 09:37:42;;;;;;;2.33;1.20;;;;;;;;;;5455972;26;20018;-90
2024/05/04 09:40:12;;;;;;;1.52;1.10;;;;;;;;;;5455900;26;20005;-88
2024/05/04 09:42:40;;;;;;;2.17;0.93;;;;;;;;;;5455617;26;20018;-88
2024/05/04 09:45:08;;;;;;;1.27;0.95;;;;;;;;;;5455607;26;20013;-89
2024/05/04 09:47:34;;;;;;;;;;;;;;;;;;5456497;26;20054;-88
2024/05/04 09:50:00;;;;;;;1.48;0.90;;;;;;;;;;5455217;26;19940;-89
2024/05/04 09:52:27;;;;;;;0.77;0.77;;;;;;;;;;5456185;26;19998;-89
2024/05/04 09:54:58;;;;;;;3.10;1.10;;;;;;;;;;5455927;26;20078;-89
2024/05/04 09:57:29;;;;;;;1.13;1.00;;;;;;;;;;5456391;26;20002;-88
2024/05/04 09:59:59;;;;;;;1.15;0.80;;;;;;;;;;5456738;26;19994;-89
2024/05/04 10:02:27;;;;;;;1.85;0.60;;;;;;;;;;5456758;26;20032;-89
2024/05/04 10:04:53;;;;;;;0.65;0.63;;;;;;;;;;5456106;26;20018;-89
2024/05/04 10:07:20;;;;;;;1.10;0.70;;;;;;;;;;5455003;26;20383;-88
2024/05/04 10:09:53;;;;;;;6.00;0.85;;;;;;;;;;5455572;26;20001;-89
2024/05/04 10:12:19;;;;;;;2.78;0.90;;;;;;;;;;5456071;26;19994;-90
2024/05/04 10:14:45;;;;;;;0.60;0.60;;;;;;;;;;5455337;26;20029;-89
2024/05/04 10:17:11;;;;;;;1.40;0.80;;;;;;;;;;5455286;26;19994;-91
2024/05/04 10:19:37;;;;;;;1.08;0.65;;;;;;;;;;5455637;26;20819;-89
2024/05/04 10:22:10;;;;;;;2.88;0.60;;;;;;;;;;5462126;26;19998;-88
2024/05/04 10:24:37;;;;;;;0.73;0.68;;;;;;;;;;5488925;26;20026;-90
2024/05/04 10:27:03;;;;;;;0.82;0.60;;;;;;;;;;5487947;26;20005;-90
2024/05/04 10:29:36;;;;;;;1.08;0.60;;;;;;;;;;5455640;26;20318;-90
2024/05/04 10:32:03;;;;;;;0.52;0.52;;;;;;;;;;5419195;26;20010;-89
2024/05/04 10:34:29;;;;;;;0.60;0.60;;;;;;;;;;5419159;26;19999;-89
2024/05/04 10:36:58;;;;;;;0.68;0.60;;;;;;;;;;5420137;26;19994;-89
2024/05/04 10:39:32;;;;;;;0.60;0.57;;;;;;;;;;5420160;26;20319;-89
2024/05/04 10:41:58;;;;;;;1.65;0.50;;;;;;;;;;5479510;26;20006;-90
2024/05/04 10:44:25;;;;;;;0.98;0.65;;;;;;;;;;5491982;26;19997;-89
2024/05/04 10:46:51;;;;;;;1.20;0.80;;;;;;;;;;5491208;26;20019;-89
2024/05/04 10:49:17;;;;;;;0.93;0.80;;;;;;;;;;5491705;26;20073;-88
2024/05/04 10:51:44;;;;;;;0.60;0.60;;;;;;;;;;5458017;26;20010;-89
2024/05/04 10:54:10;;;;;;;0.73;0.68;;;;;;;;;;5455008;26;20001;-88
2024/05/04 10:56:36;;;;;;;1.08;0.57;;;;;;;;;;5454913;26;20070;-89
2024/05/04 10:59:02;;;;;;;0.50;0.50;;;;;;;;;;5455220;26;20005;-89
2024/05/04 11:01:28;;;;;;;0.70;0.70;;;;;;;;;;5455587;26;20010;-91
2024/05/04 11:03:54;;;;;;;0.57;0.57;;;;;;;;;;5454784;26;19994;-90
2024/05/04 11:06:20;;;;;;;0.57;0.57;;;;;;;;;;5455075;26;20066;-88
2024/05/04 11:08:48;;;;;;;1.08;0.60;;;;;;;;;;5455090;26;20004;-89
2024/05/04 11:11:14;;;;;;;0.60;0.43;;;;;;;;;;5454369;26;20070;-90
2024/05/04 11:13:40;;;;;;;0.63;0.40;;;;;;;;;;5454511;26;20345;-90
2024/05/04 11:16:10;;;;;;;0.60;0.40;;;;;;;;;;5459396;26;20013;-90
2024/05/04 11:18:35;;;;;;;0.85;0.65;;;;;;;;;;5455357;26;19998;-88
2024/05/04 11:21:01;;;;;;;1.98;0.52;;;;;;;;;;5453815;26;20008;-89
2024/05/04 11:23:27;;;;;;;0.50;0.50;;;;;;;;;;5455610;26;20434;-90
2024/05/04 11:25:53;;;;;;;0.55;0.55;;;;;;;;;;5454223;26;20099;-91
2024/05/04 11:28:26;;;;;;;0.40;0.40;;;;;;;;;;5455268;26;20002;-91
2024/05/04 11:30:54;;;;;;;0.60;0.60;;;;;;;;;;5454142;26;19994;-89
2024/05/04 11:33:20;;;;;;;0.82;0.60;;;;;;;;;;5418465;26;20044;-89
2024/05/04 11:35:46;;;;;;;0.75;0.40;;;;;;;;;;5422309;26;19999;-90
2024/05/04 11:38:12;;;;;;;0.65;0.50;;;;;;;;;;5454486;26;20322;-89
2024/05/04 11:40:38;;;;;;;0.70;0.50;;;;;;;;;;5454678;26;20002;-90
2024/05/04 11:43:05;;;;;;;2.22;0.70;;;;;;;;;;5454382;26;19997;-91
2024/05/04 11:45:35;;;;;;;1.08;0.50;;;;;;;;;;5455536;26;19995;-91
2024/05/04 11:48:01;;;;;;;0.77;0.40;;;;;;;;;;5454765;26;20308;-90
2024/05/04 11:50:27;;;;;;;1.30;0.50;;;;;;;;;;5454604;26;20026;-90
2024/05/04 11:52:53;;;;;;;0.35;0.35;;;;;;;;;;5454442;26;19994;-91
2024/05/04 11:55:19;;;;;;;0.45;0.45;;;;;;;;;;5454259;26;19998;-89
2024/05/04 11:57:45;;;;;;;1.25;0.75;;;;;;;;;;5467685;26;20470;-89
2024/05/04 12:00:12;;;;;;;1.05;0.40;;;;;;;;;;5453998;26;19994;-89
2024/05/04 12:02:38;;;;;;;1.33;0.40;;;;;;;;;;5461963;26;19994;-88
2024/05/04 12:05:04;;;;;;;0.82;0.60;;;;;;;;;;5483944;26;20031;-89
2024/05/04 12:07:30;;;;;;;0.50;0.50;;;;;;;;;;5484484;26;19998;-88
2024/05/04 12:09:56;;;;;;;0.50;0.50;;;;;;;;;;5482762;26;20006;-91
2024/05/04 12:12:22;;;;;;;1.08;0.60;;;;;;;;;;5453917;26;20009;-90
2024/05/04 12:14:48;;;;;;;3.10;0.57;;;;;;;;;;5461485;26;19998;-87
2024/05/04 12:17:14;;;;;;;0.60;0.40;;;;;;;;;;5483916;26;20455;-88
2024/05/04 12:19:40;;;;;;;0.55;0.40;;;;;;;;;;5486273;26;20052;-90
2024/05/04 12:22:06;;;;;;;0.40;0.40;;;;;;;;;;5452454;26;20009;-88
2024/05/04 12:24:32;;;;;;;0.47;0.47;;;;;;;;;;5415936;25;20036;-89
2024/05/04 12:26:59;;;;;;;1.20;0.40;;;;;;;;;;5447648;26;20038;-88
2024/05/04 12:29:25;;;;;;;0.73;0.40;;;;;;;;;;5452556;26;20450;-88
2024/05/04 12:31:51;;;;;;;0.93;0.40;;;;;;;;;;5450384;26;20008;-89
2024/05/04 12:34:17;;;;;;;0.43;0.43;;;;;;;;;;5444272;26;20002;-88
2024/05/04 12:36:43;;;;;;;0.75;0.47;;;;;;;;;;5460702;26;20010;-88
2024/05/04 12:39:09;;;;;;;0.68;0.50;;;;;;;;;;5454119;26;20017;-88
2024/05/04 12:41:35;;;;;;;0.90;0.40;;;;;;;;;;5463401;26;19994;-88
2024/05/04 12:44:02;;;;;;;3.92;0.47;;;;;;;;;;5463403;26;20461;-88
2024/05/04 12:46:28;;;;;;;1.02;0.40;;;;;;;;;;5456566;26;20001;-88
2024/05/04 12:48:54;;;;;;;0.50;0.40;;;;;;;;;;5458148;26;20349;-88
2024/05/04 12:51:20;;;;;;;0.40;0.40;;;;;;;;;;5488898;26;19990;-89
2024/05/04 12:53:46;;;;;;;2.40;0.52;;;;;;;;;;5456619;26;19998;-89
2024/05/04 12:56:12;;;;;;;0.60;0.40;;;;;;;;;;5456914;26;20351;-88
2024/05/04 12:58:38;;;;;;;3.30;0.50;;;;;;;;;;5457151;26;19994;-88
2024/05/04 13:01:05;;;;;;;0.52;0.43;;;;;;;;;;5457945;26;20319;-89
2024/05/04 13:03:31;;;;;;;0.40;0.40;;;;;;;;;;5457294;26;20002;-89
2024/05/04 13:05:57;;;;;;;2.30;0.40;;;;;;;;;;5457347;26;20062;-88
2024/05/04 13:08:23;;;;;;;0.50;0.50;;;;;;;;;;5457150;26;19994;-89
2024/05/04 13:10:49;;;;;;;0.47;0.47;;;;;;;;;;5456858;26;20001;-88
2024/05/04 13:13:15;;;;;;;0.52;0.52;;;;;;;;;;5456127;26;20491;-89
2024/05/04 13:15:41;;;;;;;0.57;0.50;;;;;;;;;;5456987;26;20066;-90
2024/05/04 13:18:09;;;;;;;0.60;0.52;;;;;;;;;;5456978;26;19994;-89
2024/05/04 13:20:35;;;;;;;0.45;0.40;;;;;;;;;;5457624;26;20043;-88
2024/05/04 13:23:01;;;;;;;0.43;0.43;;;;;;;;;;5456647;26;20080;-88
2024/05/04 13:25:27;;;;;;;0.73;0.50;;;;;;;;;;5456819;26;20446;-88
2024/05/04 13:27:53;;;;;;;0.52;0.52;;;;;;;;;;5456678;26;19998;-88
2024/05/04 13:30:19;;;;;;;1.20;0.50;;;;;;;;;;5456520;26;20007;-89
2024/05/04 13:32:45;;;;;;;1.55;0.55;;;;;;;;;;5456691;26;20009;-88
2024/05/04 13:35:11;;;;;;;0.35;0.35;;;;;;;;;;5457116;26;20562;-88
2024/05/04 13:37:37;;;;;;;0.68;0.60;;;;;;;;;;5456730;26;19994;-89
2024/05/04 13:40:04;;;;;;;3.05;0.98;;;;;;;;;;5456203;26;19998;-89
2024/05/04 13:42:30;;;;;;;1.73;0.68;;;;;;;;;;5456405;26;19994;-89
2024/05/04 13:44:55;;;;;;;0.40;0.40;;;;;;;;;;5456164;26;20022;-89
2024/05/04 13:47:22;;;;;;;0.50;0.50;;;;;;;;;;5456601;26;20061;-90
2024/05/04 13:49:48;;;;;;;3.53;0.60;;;;;;;;;;5455375;26;19998;-88
2024/05/04 13:52:14;;;;;;;0.60;0.60;;;;;;;;;;5456481;26;19990;-89
2024/05/04 13:54:40;;;;;;;0.80;0.60;;;;;;;;;;5456372;26;20005;-89
2024/05/04 13:57:06;;;;;;;0.60;0.50;;;;;;;;;;5457268;26;20318;-88
2024/05/04 13:59:32;;;;;;;0.70;0.60;;;;;;;;;;5455877;26;19998;-89
2024/05/04 14:01:59;;;;;;;0.50;0.50;;;;;;;;;;5456662;26;20940;-88
2024/05/04 14:04:25;;;;;;;1.23;0.60;;;;;;;;;;5456173;26;20013;-88
2024/05/04 14:06:51;;;;;;;1.63;0.60;;;;;;;;;;5456622;26;20438;-89
2024/05/04 14:09:17;;;;;;;0.43;0.43;;;;;;;;;;5456114;26;20002;-88
2024/05/04 14:11:43;;;;;;;0.90;0.52;;;;;;;;;;5456188;26;19994;-87
2024/05/04 14:14:09;;;;;;;0.82;0.50;;;;;;;;;;5456195;26;20333;-89
2024/05/04 14:16:35;;;;;;;1.30;0.77;;;;;;;;;;5457002;26;19998;-88
2024/05/04 14:19:01;;;;;;;3.40;0.60;;;;;;;;;;5455624;26;20009;-89
2024/05/04 14:21:27;;;;;;;0.50;0.50;;;;;;;;;;5456216;26;20009;-88
2024/05/04 14:23:53;;;;;;;0.68;0.68;;;;;;;;;;5456367;26;20002;-89
2024/05/04 14:26:19;;;;;;;1.67;0.98;;;;;;;;;;5456208;26;20013;-88
2024/05/04 14:28:45;;;;;;;0.70;0.70;;;;;;;;;;5455865;26;19998;-89
2024/05/04 14:31:12;;;;;;;0.68;0.68;;;;;;;;;;5455927;26;20016;-89
2024/05/04 14:33:38;;;;;;;1.75;0.90;;;;;;;;;;5456599;26;20392;-89
2024/05/04 14:36:04;;;;;;;2.25;1.30;;;;;;;;;;5487029;26;20539;-87
2024/05/04 14:38:31;;;;;;;0.93;0.60;;;;;;;;;;5440851;26;20528;-88